createdAt,value
2022-11-19T00:02:00.050Z,83.25
2022-11-19T00:04:58.354Z,83.25
2022-11-19T00:07:55.815Z,83.29
2022-11-19T00:10:53.314Z,83.06
2022-11-19T00:13:50.785Z,83.02
2022-11-19T00:16:48.353Z,83.05
2022-11-19T00:19:45.784Z,83.06
2022-11-19T00:22:43.248Z,83.03
2022-11-19T00:25:40.701Z,83.21
2022-11-19T00:28:38.168Z,83.25
2022-11-19T00:31:35.601Z,83.27
2022-11-19T00:34:33.084Z,83.17
2022-11-19T00:37:30.512Z,83.09
2022-11-19T00:40:27.980Z,83.22
2022-11-19T00:43:43.150Z,83.22
2022-11-19T00:46:40.631Z,83.27
2022-11-19T00:49:38.086Z,83.20
2022-11-19T00:52:35.544Z,82.79
2022-11-19T00:55:33.063Z,82.76
2022-11-19T00:58:30.528Z,82.78
2022-11-19T01:01:28.020Z,82.70
2022-11-19T01:04:25.553Z,82.72
2022-11-19T01:07:23.031Z,82.84
2022-11-19T01:10:20.562Z,82.75
2022-11-19T01:13:36.416Z,82.81
2022-11-19T01:16:33.944Z,82.95
2022-11-19T01:19:31.418Z,82.63
2022-11-19T01:22:28.907Z,82.58
2022-11-19T01:25:26.370Z,82.51
2022-11-19T01:28:23.842Z,82.32
2022-11-19T01:31:21.296Z,82.27
2022-11-19T01:34:18.765Z,82.16
2022-11-19T01:37:16.241Z,82.14
2022-11-19T01:40:13.738Z,82.16
2022-11-19T01:43:11.240Z,81.99
2022-11-19T01:46:08.683Z,81.75
2022-11-19T01:49:06.130Z,81.94
2022-11-19T01:52:03.567Z,81.92
2022-11-19T01:55:02.047Z,82.07
2022-11-19T01:57:59.513Z,82.09
2022-11-19T02:00:57.077Z,82.20
2022-11-19T02:03:54.559Z,82.28
2022-11-19T02:06:52.034Z,82.34
2022-11-19T02:09:49.491Z,82.40
2022-11-19T02:12:46.928Z,82.27
2022-11-19T02:15:44.385Z,82.05
2022-11-19T02:18:41.858Z,81.96
2022-11-19T02:21:39.342Z,82.04
2022-11-19T02:24:36.796Z,82.04
2022-11-19T02:27:34.255Z,82.02
2022-11-19T02:30:31.711Z,82.03
2022-11-19T02:33:29.215Z,82.21
2022-11-19T02:36:26.703Z,82.34
2022-11-19T02:39:24.145Z,82.34
2022-11-19T02:42:21.632Z,81.95
2022-11-19T02:45:19.088Z,82.05
2022-11-19T02:48:16.566Z,81.96
2022-11-19T02:51:14.025Z,81.98
2022-11-19T02:54:13.613Z,81.91
2022-11-19T02:57:11.052Z,81.89
2022-11-19T03:00:26.334Z,81.93
2022-11-19T03:03:41.625Z,82.18
2022-11-19T03:06:39.084Z,82.27
2022-11-19T03:09:36.568Z,81.95
2022-11-19T03:12:34.046Z,81.87
2022-11-19T03:15:49.220Z,81.89
2022-11-19T03:18:46.703Z,81.91
2022-11-19T03:21:44.179Z,81.67
2022-11-19T03:24:41.652Z,81.67
2022-11-19T03:27:39.126Z,81.63
2022-11-19T03:30:36.601Z,81.74
2022-11-19T03:33:34.048Z,81.78
2022-11-19T03:36:31.493Z,81.92
2022-11-19T03:39:28.961Z,82.09
2022-11-19T03:42:26.405Z,81.96
2022-11-19T03:45:23.886Z,81.98
2022-11-19T03:48:21.341Z,82.07
2022-11-19T03:51:18.821Z,82.17
2022-11-19T03:54:16.547Z,82.28
2022-11-19T03:57:13.997Z,82.21
2022-11-19T04:00:11.481Z,82.22
2022-11-19T04:03:08.948Z,82.33
2022-11-19T04:06:06.415Z,82.36
2022-11-19T04:09:03.833Z,82.14
2022-11-19T04:12:01.287Z,82.04
2022-11-19T04:14:58.736Z,82.04
2022-11-19T04:17:56.191Z,82.05
2022-11-19T04:20:53.659Z,82.08
2022-11-19T04:23:51.436Z,82.12
2022-11-19T04:26:48.937Z,82.18
2022-11-19T04:29:46.428Z,82.15
2022-11-19T04:32:43.889Z,82.20
2022-11-19T04:35:41.338Z,82.35
2022-11-19T04:38:38.804Z,82.31
2022-11-19T04:41:36.256Z,82.35
2022-11-19T04:44:34.307Z,82.01
2022-11-19T04:47:31.750Z,81.70
2022-11-19T04:50:29.194Z,81.78
2022-11-19T04:53:26.650Z,81.81
2022-11-19T04:56:24.142Z,81.73
2022-11-19T04:59:21.911Z,81.66
2022-11-19T05:02:19.620Z,81.57
2022-11-19T05:05:17.095Z,81.46
2022-11-19T05:08:14.579Z,81.47
2022-11-19T05:11:12.046Z,81.65
2022-11-19T05:14:09.535Z,81.62
2022-11-19T05:17:06.998Z,81.54
2022-11-19T05:20:04.515Z,81.53
2022-11-19T05:23:01.961Z,81.61
2022-11-19T05:25:59.432Z,81.59
2022-11-19T05:28:56.890Z,81.60
2022-11-19T05:31:54.407Z,81.66
2022-11-19T05:34:51.849Z,81.74
2022-11-19T05:37:49.354Z,81.64
2022-11-19T05:40:46.905Z,81.74
2022-11-19T05:43:44.370Z,81.89
2022-11-19T05:46:41.823Z,81.75
2022-11-19T05:49:39.283Z,81.80
2022-11-19T05:52:36.908Z,81.73
2022-11-19T05:55:34.350Z,81.74
2022-11-19T05:58:31.824Z,81.58
2022-11-19T06:01:29.289Z,81.55
2022-11-19T06:04:26.760Z,81.52
2022-11-19T06:07:24.382Z,81.32
2022-11-19T06:10:21.929Z,81.40
2022-11-19T06:13:19.399Z,81.29
2022-11-19T06:16:16.848Z,81.01
2022-11-19T06:19:14.360Z,80.79
2022-11-19T06:22:12.461Z,80.51
2022-11-19T06:25:12.046Z,80.30
2022-11-19T06:28:10.060Z,80.29
2022-11-19T06:31:07.534Z,80.42
2022-11-19T06:34:05.043Z,80.38
2022-11-19T06:37:02.507Z,80.17
2022-11-19T06:39:59.966Z,80.01
2022-11-19T06:42:57.432Z,80.00
2022-11-19T06:45:54.902Z,79.80
2022-11-19T06:48:52.350Z,79.82
2022-11-19T06:51:49.915Z,79.88
2022-11-19T06:54:47.385Z,79.41
2022-11-19T06:57:44.848Z,79.40
2022-11-19T07:00:42.330Z,79.19
2022-11-19T07:03:39.801Z,78.60
2022-11-19T07:06:37.262Z,78.69
2022-11-19T07:09:34.713Z,79.12
2022-11-19T07:12:32.223Z,79.23
2022-11-19T07:15:29.672Z,79.14
2022-11-19T07:18:27.153Z,78.62
2022-11-19T07:21:24.621Z,78.29
2022-11-19T07:24:22.217Z,78.09
2022-11-19T07:27:19.706Z,77.78
2022-11-19T07:30:17.199Z,77.63
2022-11-19T07:33:14.662Z,77.61
2022-11-19T07:36:17.906Z,77.48
2022-11-19T07:39:16.071Z,77.69
2022-11-19T07:42:31.049Z,77.54
2022-11-19T07:45:28.521Z,77.12
2022-11-19T07:48:25.983Z,76.69
2022-11-19T07:51:23.575Z,75.99
2022-11-19T07:54:21.045Z,75.67
2022-11-19T07:57:18.515Z,75.72
2022-11-19T08:00:15.990Z,75.71
2022-11-19T08:03:13.447Z,75.72
2022-11-19T08:06:11.046Z,75.52
2022-11-19T08:09:08.508Z,75.50
2022-11-19T08:12:05.986Z,75.43
2022-11-19T08:15:03.449Z,75.36
2022-11-19T08:18:17.409Z,75.51
2022-11-19T08:21:15.917Z,75.49
2022-11-19T08:24:13.413Z,74.80
2022-11-19T08:27:11.126Z,75.09
2022-11-19T08:30:08.649Z,74.94
2022-11-19T08:33:06.098Z,74.96
2022-11-19T08:36:03.561Z,75.44
2022-11-19T08:39:04.150Z,75.86
2022-11-19T08:42:19.445Z,76.13
2022-11-19T08:45:20.605Z,76.43
2022-11-19T08:48:18.442Z,76.19
2022-11-19T08:51:16.712Z,75.70
2022-11-19T08:54:14.250Z,75.42
2022-11-19T08:57:11.700Z,75.17
2022-11-19T09:00:09.159Z,75.07
2022-11-19T09:03:06.627Z,75.15
2022-11-19T09:06:04.112Z,75.05
2022-11-19T09:09:01.547Z,74.48
2022-11-19T09:11:58.998Z,73.91
2022-11-19T09:14:56.442Z,73.34
2022-11-19T09:17:53.925Z,73.01
2022-11-19T09:20:51.363Z,72.30
2022-11-19T09:23:48.826Z,72.04
2022-11-19T09:26:51.706Z,71.47
2022-11-19T09:29:52.247Z,71.07
2022-11-19T09:32:49.704Z,71.08
2022-11-19T09:35:47.151Z,71.02
2022-11-19T09:38:44.610Z,71.24
2022-11-19T09:41:43.657Z,71.30
2022-11-19T09:44:41.140Z,71.20
2022-11-19T09:47:38.610Z,71.37
2022-11-19T09:50:36.077Z,71.24
2022-11-19T09:53:33.556Z,71.32
2022-11-19T09:56:31.033Z,71.33
2022-11-19T09:59:28.478Z,71.74
2022-11-19T10:02:25.938Z,72.05
2022-11-19T10:05:23.401Z,71.77
2022-11-19T10:08:20.857Z,71.46
2022-11-19T10:11:18.315Z,71.58
2022-11-19T10:14:15.786Z,71.06
2022-11-19T10:17:13.228Z,70.79
2022-11-19T10:20:10.785Z,71.10
2022-11-19T10:23:08.214Z,70.53
2022-11-19T10:26:05.669Z,70.34
2022-11-19T10:29:03.141Z,70.23
2022-11-19T10:32:00.600Z,70.41
2022-11-19T10:34:58.844Z,70.54
2022-11-19T10:37:56.287Z,70.49
2022-11-19T10:40:53.757Z,70.52
2022-11-19T10:43:51.227Z,70.66
2022-11-19T10:46:48.672Z,70.66
2022-11-19T10:49:46.506Z,70.32
2022-11-19T10:52:43.976Z,70.37
2022-11-19T10:55:41.446Z,70.10
2022-11-19T10:58:38.902Z,70.25
2022-11-19T11:01:36.395Z,70.25
2022-11-19T11:04:33.835Z,70.33
2022-11-19T11:07:31.322Z,70.25
2022-11-19T11:10:28.780Z,70.39
2022-11-19T11:13:43.776Z,70.23
2022-11-19T11:16:41.265Z,69.83
2022-11-19T11:19:38.790Z,70.13
2022-11-19T11:22:36.261Z,70.20
2022-11-19T11:25:34.262Z,69.92
2022-11-19T11:28:31.728Z,69.65
2022-11-19T11:31:29.234Z,69.36
2022-11-19T11:34:26.713Z,69.24
2022-11-19T11:37:24.185Z,69.53
2022-11-19T11:40:21.623Z,69.96
2022-11-19T11:43:19.076Z,69.64
2022-11-19T11:46:17.217Z,69.58
2022-11-19T11:49:14.654Z,69.77
2022-11-19T11:52:12.114Z,69.36
2022-11-19T11:55:09.557Z,69.68
2022-11-19T11:58:07.029Z,69.90
2022-11-19T12:01:04.502Z,70.26
2022-11-19T12:04:01.943Z,70.70
2022-11-19T12:06:59.446Z,70.85
2022-11-19T12:09:59.466Z,70.75
2022-11-19T12:12:56.926Z,70.54
2022-11-19T12:15:54.375Z,70.53
2022-11-19T12:18:51.854Z,70.62
2022-11-19T12:21:49.311Z,70.52
2022-11-19T12:24:46.765Z,70.09
2022-11-19T12:27:44.216Z,70.88
2022-11-19T12:30:41.681Z,70.54
2022-11-19T12:33:39.142Z,70.02
2022-11-19T12:36:36.597Z,70.35
2022-11-19T12:39:34.046Z,70.74
2022-11-19T12:42:31.660Z,70.55
2022-11-19T12:45:30.700Z,71.05
2022-11-19T12:48:28.207Z,71.01
2022-11-19T12:51:25.686Z,70.98
2022-11-19T12:54:30.447Z,70.78
2022-11-19T12:57:32.367Z,70.87
2022-11-19T13:00:29.845Z,71.08
2022-11-19T13:03:27.304Z,71.20
2022-11-19T13:06:24.754Z,70.98
2022-11-19T13:09:22.429Z,70.34
2022-11-19T13:12:20.132Z,70.37
2022-11-19T13:15:17.584Z,70.26
2022-11-19T13:18:15.169Z,70.10
2022-11-19T13:21:13.736Z,69.86
2022-11-19T13:24:11.190Z,69.72
2022-11-19T13:27:08.691Z,69.59
2022-11-19T13:30:06.174Z,69.02
2022-11-19T13:33:03.642Z,69.27
2022-11-19T13:36:03.398Z,69.42
2022-11-19T13:39:00.876Z,69.65
2022-11-19T13:42:15.991Z,70.05
2022-11-19T13:45:13.521Z,70.32
2022-11-19T13:48:11.043Z,70.34
2022-11-19T13:51:10.065Z,70.62
2022-11-19T13:54:07.519Z,71.00
2022-11-19T13:57:04.969Z,71.64
2022-11-19T14:00:02.429Z,71.51
2022-11-19T14:02:59.913Z,71.54
2022-11-19T14:05:57.373Z,71.66
2022-11-19T14:08:54.836Z,71.99
2022-11-19T14:11:52.274Z,72.21
2022-11-19T14:15:07.558Z,72.44
2022-11-19T14:18:37.453Z,72.58
2022-11-19T14:21:52.774Z,72.85
2022-11-19T14:25:08.160Z,72.79
2022-11-19T14:28:05.619Z,72.75
2022-11-19T14:31:03.083Z,72.96
2022-11-19T14:34:01.426Z,73.03
2022-11-19T14:36:58.908Z,73.06
2022-11-19T14:39:56.365Z,73.18
2022-11-19T14:43:14.318Z,72.96
2022-11-19T14:46:12.007Z,72.66
2022-11-19T14:49:09.853Z,72.58
2022-11-19T14:52:08.414Z,72.78
2022-11-19T14:55:05.868Z,72.68
2022-11-19T14:58:03.510Z,72.87
2022-11-19T15:01:00.960Z,72.98
2022-11-19T15:03:59.716Z,73.16
2022-11-19T15:06:57.688Z,73.36
2022-11-19T15:09:55.169Z,73.50
2022-11-19T15:12:52.902Z,73.59
2022-11-19T15:15:50.381Z,73.68
2022-11-19T15:18:47.833Z,73.80
2022-11-19T15:21:46.004Z,73.58
2022-11-19T15:24:43.517Z,73.72
2022-11-19T15:27:40.994Z,73.86
2022-11-19T15:30:39.318Z,73.94
2022-11-19T15:33:36.915Z,74.11
2022-11-19T15:36:34.529Z,74.07
2022-11-19T15:39:32.924Z,73.96
2022-11-19T15:42:30.627Z,74.07
2022-11-19T15:45:28.383Z,74.11
2022-11-19T15:48:25.880Z,74.11
2022-11-19T15:51:23.404Z,73.78
2022-11-19T15:54:20.951Z,73.79
2022-11-19T15:57:18.458Z,73.79
2022-11-19T16:00:15.907Z,74.12
2022-11-19T16:03:13.756Z,74.16
2022-11-19T16:06:11.331Z,74.34
2022-11-19T16:09:08.899Z,74.34
2022-11-19T16:12:24.155Z,74.40
2022-11-19T16:15:39.491Z,74.23
2022-11-19T16:18:36.958Z,74.22
2022-11-19T16:21:35.850Z,74.34
2022-11-19T16:24:50.980Z,74.56
2022-11-19T16:27:48.456Z,74.91
2022-11-19T16:30:47.160Z,74.70
2022-11-19T16:33:45.060Z,74.72
2022-11-19T16:36:42.616Z,74.79
2022-11-19T16:39:40.123Z,75.06
2022-11-19T16:42:38.445Z,75.22
2022-11-19T16:45:36.259Z,75.19
2022-11-19T16:48:34.088Z,75.51
2022-11-19T16:51:31.924Z,75.66
2022-11-19T16:54:29.822Z,75.28
2022-11-19T16:57:27.974Z,75.12
2022-11-19T17:00:28.450Z,75.17
2022-11-19T17:03:27.772Z,75.28
2022-11-19T17:06:26.818Z,74.98
2022-11-19T17:09:24.359Z,74.78
2022-11-19T17:12:22.152Z,74.88
2022-11-19T17:15:19.957Z,74.95
2022-11-19T17:18:17.835Z,74.80
2022-11-19T17:21:16.871Z,74.84
2022-11-19T17:24:14.406Z,74.77
2022-11-19T17:27:12.681Z,74.88
2022-11-19T17:30:10.821Z,74.90
2022-11-19T17:33:08.370Z,74.81
2022-11-19T17:36:07.299Z,74.82
2022-11-19T17:39:05.475Z,74.91
2022-11-19T17:42:21.347Z,74.87
2022-11-19T17:45:19.399Z,74.84
2022-11-19T17:48:17.316Z,74.97
2022-11-19T17:51:14.929Z,74.71
2022-11-19T17:54:14.559Z,74.84
2022-11-19T17:57:12.395Z,74.74
2022-11-19T18:00:11.978Z,74.86
2022-11-19T18:03:10.071Z,75.01
2022-11-19T18:06:08.735Z,74.91
2022-11-19T18:09:06.801Z,74.97
2022-11-19T18:12:05.470Z,75.22
2022-11-19T18:15:04.011Z,75.17
2022-11-19T18:18:02.069Z,75.12
2022-11-19T18:21:02.111Z,75.05
2022-11-19T18:24:00.394Z,74.91
2022-11-19T18:27:00.991Z,74.97
2022-11-19T18:29:58.591Z,75.01
2022-11-19T18:32:56.563Z,75.08
2022-11-19T18:35:54.841Z,74.66
2022-11-19T18:38:53.404Z,74.79
2022-11-19T18:41:51.335Z,74.69
2022-11-19T18:44:48.803Z,74.51
2022-11-19T18:47:50.059Z,74.65
2022-11-19T18:50:48.287Z,74.89
2022-11-19T18:53:46.173Z,74.91
2022-11-19T18:56:44.708Z,75.10
2022-11-19T18:59:44.000Z,75.08
2022-11-19T19:02:42.115Z,75.04
2022-11-19T19:05:40.694Z,74.87
2022-11-19T19:08:38.933Z,74.99
2022-11-19T19:11:54.743Z,74.77
2022-11-19T19:14:55.452Z,74.97
2022-11-19T19:17:53.876Z,74.89
2022-11-19T19:20:52.505Z,74.85
2022-11-19T19:23:50.765Z,75.05
2022-11-19T19:26:48.968Z,74.88
2022-11-19T19:29:46.970Z,74.79
2022-11-19T19:32:45.476Z,74.70
2022-11-19T19:35:44.789Z,74.59
2022-11-19T19:38:42.723Z,74.51
2022-11-19T19:41:41.034Z,74.55
2022-11-19T19:44:39.619Z,74.84
2022-11-19T19:47:37.912Z,74.73
2022-11-19T19:50:40.053Z,74.88
2022-11-19T19:53:40.127Z,74.90
2022-11-19T19:56:38.220Z,74.93
2022-11-19T19:59:36.255Z,74.89
2022-11-19T20:02:34.819Z,75.05
2022-11-19T20:05:34.942Z,74.90
2022-11-19T20:08:33.117Z,74.72
2022-11-19T20:11:31.397Z,74.56
2022-11-19T20:14:29.337Z,74.46
2022-11-19T20:17:27.863Z,74.53
2022-11-19T20:20:26.861Z,74.58
2022-11-19T20:23:25.111Z,75.02
2022-11-19T20:26:23.924Z,74.74
2022-11-19T20:29:23.860Z,74.54
2022-11-19T20:32:22.232Z,74.84
2022-11-19T20:35:20.743Z,74.79
2022-11-19T20:38:19.623Z,74.68
2022-11-19T20:41:35.924Z,74.71
2022-11-19T20:44:34.405Z,74.84
2022-11-19T20:47:32.278Z,74.85
2022-11-19T20:50:29.850Z,74.62
2022-11-19T20:53:29.619Z,74.69
2022-11-19T20:56:27.854Z,74.67
2022-11-19T20:59:26.194Z,74.84
2022-11-19T21:02:26.019Z,74.75
2022-11-19T21:05:23.810Z,74.73
2022-11-19T21:08:22.062Z,74.67
2022-11-19T21:11:23.262Z,74.86
2022-11-19T21:14:21.214Z,74.72
2022-11-19T21:17:18.802Z,74.67
2022-11-19T21:20:17.486Z,74.80
2022-11-19T21:23:15.528Z,74.90
2022-11-19T21:26:13.039Z,74.93
2022-11-19T21:29:11.008Z,75.11
2022-11-19T21:32:09.635Z,75.21
2022-11-19T21:35:07.103Z,75.16
2022-11-19T21:38:09.434Z,75.18
2022-11-19T21:41:09.732Z,75.31
2022-11-19T21:44:07.289Z,75.23
2022-11-19T21:47:04.783Z,75.25
2022-11-19T21:50:02.321Z,75.42
2022-11-19T21:53:00.361Z,75.50
2022-11-19T21:55:58.064Z,75.64
2022-11-19T21:58:55.512Z,75.53
2022-11-19T22:01:54.880Z,75.47
2022-11-19T22:04:52.846Z,75.54
2022-11-19T22:07:50.294Z,75.74
2022-11-19T22:10:47.767Z,75.70
2022-11-19T22:13:45.221Z,75.72
2022-11-19T22:16:42.681Z,75.92
2022-11-19T22:19:40.142Z,75.95
2022-11-19T22:22:37.617Z,75.71
2022-11-19T22:25:35.074Z,75.68
2022-11-19T22:28:32.522Z,75.80
2022-11-19T22:31:29.992Z,75.94
2022-11-19T22:34:27.450Z,75.92
2022-11-19T22:37:24.940Z,75.92
2022-11-19T22:40:22.408Z,75.99
2022-11-19T22:43:23.042Z,76.15
2022-11-19T22:46:20.782Z,76.09
2022-11-19T22:49:18.457Z,75.99
2022-11-19T22:52:17.664Z,75.99
2022-11-19T22:55:15.160Z,75.98
2022-11-19T22:58:12.629Z,76.01
2022-11-19T23:01:10.231Z,76.01
2022-11-19T23:04:07.746Z,76.06
2022-11-19T23:07:05.274Z,75.93
2022-11-19T23:10:02.791Z,75.96
2022-11-19T23:13:20.647Z,75.86
2022-11-19T23:16:18.101Z,75.70
2022-11-19T23:19:19.214Z,75.70
2022-11-19T23:22:18.146Z,75.92
2022-11-19T23:25:15.589Z,76.15
2022-11-19T23:28:13.052Z,76.14
2022-11-19T23:31:10.527Z,75.99
2022-11-19T23:34:07.979Z,75.93
2022-11-19T23:37:05.434Z,75.88
2022-11-19T23:40:02.892Z,75.81
2022-11-19T23:43:00.352Z,75.86
2022-11-19T23:45:57.834Z,76.06
2022-11-19T23:48:55.317Z,76.09
2022-11-19T23:51:52.771Z,75.88
2022-11-19T23:54:50.197Z,75.82
2022-11-19T23:57:47.681Z,75.63
